Time;durP1;ratioP1;P1;durP2;ratioP2;P2;SDS_P1;SDS_P2;PMS_P1;PMS_P2;Temp;Humidity;BMP_temperature;BMP_pressure;BME280_temperature;BME280_humidity;BME280_pressure;Samples;Min_cycle;Max_cycle;Signal;HPM_P1;HPM_P2
2024/01/01 00:00:33;;;;;;;19.80;14.13;;;;;;;;;;5039799;28;20453;-83
2024/01/01 00:03:20;;;;;;;21.87;16.97;;;;;;;;;;5054371;28;20824;-85
2024/01/01 00:06:06;;;;;;;19.27;14.10;;;;;;;;;;5054329;28;20478;-86
2024/01/01 00:08:54;;;;;;;14.23;11.53;;;;;;;;;;5112546;22;20526;-86
2024/01/01 00:11:27;;;;;;;17.60;11.07;;;;;;;;;;5043317;28;20473;-86
2024/01/01 00:14:23;;;;;;;20.10;16.10;;;;;;;;;;5049471;28;20500;-85
2024/01/01 00:17:20;;;;;;;;;;;;;;;;;;;;;
2024/01/01 00:20:01;;;;;;;17.50;9.37;;;;;;;;;;5021429;28;20466;-87
2024/01/01 00:22:48;;;;;;;9.83;7.27;;;;;;;;;;5006153;28;20466;-86
2024/01/01 00:25:22;;;;;;;11.10;6.20;;;;;;;;;;5016121;28;20472;-84
2024/01/01 00:27:56;;;;;;;11.33;6.10;;;;;;;;;;5004756;28;20453;-85
2024/01/01 00:30:27;;;;;;;10.53;5.60;;;;;;;;;;5013067;28;20445;-86
2024/01/01 00:32:59;;;;;;;8.03;4.97;;;;;;;;;;5013911;28;20559;-87
2024/01/01 00:35:38;;;;;;;7.23;5.23;;;;;;;;;;5008424;28;20875;-87
2024/01/01 00:38:15;;;;;;;11.90;5.57;;;;;;;;;;5010972;28;20557;-85
2024/01/01 00:40:49;;;;;;;7.63;4.20;;;;;;;;;;4999323;28;20460;-85
2024/01/01 00:43:35;;;;;;;8.23;4.70;;;;;;;;;;5007199;28;22282;-85
2024/01/01 00:46:06;;;;;;;9.83;4.73;;;;;;;;;;5006783;28;20537;-85
2024/01/01 00:48:38;;;;;;;7.50;5.20;;;;;;;;;;5005284;28;20467;-86
2024/01/01 00:51:12;;;;;;;8.00;4.13;;;;;;;;;;5009742;28;21252;-86
2024/01/01 00:53:47;;;;;;;9.70;5.77;;;;;;;;;;4995379;28;20471;-87
2024/01/01 00:56:31;;;;;;;7.77;3.27;;;;;;;;;;5010471;28;20991;-87
2024/01/01 00:59:02;;;;;;;7.83;4.50;;;;;;;;;;5009601;28;20470;-85
2024/01/01 01:01:39;;;;;;;6.43;3.40;;;;;;;;;;5015576;28;20444;-84
2024/01/01 01:04:21;;;;;;;6.43;3.10;;;;;;;;;;5013274;28;20629;-86
2024/01/01 01:07:05;;;;;;;3.47;2.57;;;;;;;;;;5011087;28;20495;-85
2024/01/01 01:09:50;;;;;;;7.57;2.83;;;;;;;;;;4997497;28;20487;-85
2024/01/01 01:12:42;;;;;;;6.30;2.73;;;;;;;;;;5013872;28;20458;-87
2024/01/01 01:15:26;;;;;;;6.70;2.90;;;;;;;;;;5008179;28;20451;-83
2024/01/01 01:17:55;;;;;;;3.00;1.23;;;;;;;;;;4981604;28;20803;-85
2024/01/01 01:20:33;;;;;;;4.53;1.70;;;;;;;;;;4996548;28;20579;-86
2024/01/01 01:23:15;;;;;;;4.90;2.30;;;;;;;;;;5004246;28;20478;-85
2024/01/01 01:26:02;;;;;;;6.10;1.93;;;;;;;;;;5001879;28;20495;-85
2024/01/01 01:28:38;;;;;;;3.73;1.70;;;;;;;;;;5004863;28;21053;-86
2024/01/01 01:31:10;;;;;;;5.97;2.30;;;;;;;;;;4995265;28;20834;-84
2024/01/01 01:33:57;;;;;;;6.37;1.80;;;;;;;;;;4998964;28;20479;-86
2024/01/01 01:36:29;;;;;;;5.07;1.77;;;;;;;;;;4993368;28;20481;-87
2024/01/01 01:39:01;;;;;;;4.17;2.07;;;;;;;;;;4997763;28;20749;-85
2024/01/01 01:41:45;;;;;;;8.73;2.63;;;;;;;;;;5001177;28;20458;-87
2024/01/01 01:44:30;;;;;;;6.30;1.87;;;;;;;;;;4971422;28;20439;-85
2024/01/01 01:47:03;;;;;;;4.80;2.30;;;;;;;;;;4983012;28;20538;-86
2024/01/01 01:49:43;;;;;;;5.30;2.30;;;;;;;;;;4987521;28;20454;-85
2024/01/01 01:52:24;;;;;;;5.80;1.97;;;;;;;;;;4992758;28;22640;-85
2024/01/01 01:55:01;;;;;;;3.67;2.10;;;;;;;;;;4981529;28;20577;-85
2024/01/01 01:57:57;;;;;;;4.47;1.50;;;;;;;;;;4991311;28;20520;-84
2024/01/01 02:00:28;;;;;;;5.70;1.67;;;;;;;;;;4998492;28;20730;-84
2024/01/01 02:03:28;;;;;;;4.60;1.40;;;;;;;;;;4988392;28;20545;-85
2024/01/01 02:06:05;;;;;;;3.07;1.10;;;;;;;;;;4993053;28;20581;-86
2024/01/01 02:08:33;;;;;;;6.03;2.17;;;;;;;;;;4998285;28;20481;-85
2024/01/01 02:11:02;;;;;;;3.17;1.10;;;;;;;;;;5000779;28;20462;-85
2024/01/01 02:13:34;;;;;;;3.70;1.50;;;;;;;;;;5008442;28;20478;-86
2024/01/01 02:16:05;;;;;;;5.17;1.50;;;;;;;;;;5006065;28;20479;-84
2024/01/01 02:18:42;;;;;;;6.40;2.27;;;;;;;;;;4998765;28;20469;-86
2024/01/01 02:21:18;;;;;;;6.73;1.43;;;;;;;;;;4991203;28;20473;-85
2024/01/01 02:23:47;;;;;;;6.70;1.70;;;;;;;;;;4985455;28;20458;-86
2024/01/01 02:26:21;;;;;;;4.63;1.77;;;;;;;;;;4996203;28;20492;-87
2024/01/01 02:28:55;;;;;;;3.23;1.17;;;;;;;;;;5000456;28;20459;-86
2024/01/01 02:31:23;;;;;;;3.50;1.43;;;;;;;;;;4998189;28;20450;-85
2024/01/01 02:34:05;;;;;;;3.63;1.40;;;;;;;;;;4991420;28;20479;-87
2024/01/01 02:36:49;;;;;;;3.87;1.37;;;;;;;;;;4981936;28;20502;-88
2024/01/01 02:39:16;;;;;;;7.33;1.80;;;;;;;;;;4992115;28;20451;-82
2024/01/01 02:41:56;;;;;;;7.00;1.73;;;;;;;;;;4992279;28;20640;-86
2024/01/01 02:44:26;;;;;;;4.30;1.63;;;;;;;;;;4989395;28;20463;-85
2024/01/01 02:46:59;;;;;;;5.90;2.37;;;;;;;;;;4993709;28;20490;-83
2024/01/01 02:49:38;;;;;;;6.03;1.57;;;;;;;;;;4989794;28;20549;-85
2024/01/01 02:52:18;;;;;;;3.00;1.43;;;;;;;;;;4994830;28;20466;-84
2024/01/01 02:54:47;;;;;;;9.77;1.80;;;;;;;;;;4992337;28;20462;-85
2024/01/01 02:57:18;;;;;;;6.03;1.23;;;;;;;;;;4993802;28;20491;-87
2024/01/01 02:59:56;;;;;;;6.97;1.67;;;;;;;;;;4989528;28;20555;-85
2024/01/01 03:02:23;;;;;;;5.83;1.93;;;;;;;;;;5006803;28;20944;-86
2024/01/01 03:05:02;;;;;;;5.27;1.37;;;;;;;;;;4996484;28;20554;-86
2024/01/01 03:07:42;;;;;;;3.77;1.00;;;;;;;;;;4988684;28;20865;-85
2024/01/01 03:10:16;;;;;;;2.83;1.73;;;;;;;;;;4991840;28;20474;-86
2024/01/01 03:12:54;;;;;;;6.10;1.60;;;;;;;;;;4991830;28;20461;-86
2024/01/01 03:15:30;;;;;;;4.03;2.40;;;;;;;;;;4990946;28;20486;-84
2024/01/01 03:18:05;;;;;;;7.23;1.70;;;;;;;;;;4985733;28;21042;-84
2024/01/01 03:20:41;;;;;;;6.40;1.63;;;;;;;;;;5002809;28;20494;-84
2024/01/01 03:23:12;;;;;;;5.87;2.20;;;;;;;;;;4997422;28;20458;-85
2024/01/01 03:25:56;;;;;;;6.40;1.70;;;;;;;;;;4989449;28;20467;-87
2024/01/01 03:28:39;;;;;;;3.87;1.47;;;;;;;;;;4984902;28;20467;-85
2024/01/01 03:31:11;;;;;;;4.73;1.47;;;;;;;;;;4998917;28;20448;-87
2024/01/01 03:33:39;;;;;;;8.07;1.20;;;;;;;;;;5002375;28;21081;-85
2024/01/01 03:36:12;;;;;;;7.13;1.80;;;;;;;;;;4990905;28;20488;-87
2024/01/01 03:38:53;;;;;;;4.47;1.40;;;;;;;;;;4998181;28;20486;-88
2024/01/01 03:41:27;;;;;;;10.20;3.60;;;;;;;;;;4993192;28;20483;-87
2024/01/01 03:44:00;;;;;;;6.20;1.60;;;;;;;;;;5006560;28;20950;-84
2024/01/01 03:46:36;;;;;;;8.17;2.17;;;;;;;;;;4999227;28;20467;-86
2024/01/01 03:49:07;;;;;;;6.03;1.70;;;;;;;;;;4999765;28;20474;-86
2024/01/01 03:51:52;;;;;;;7.03;3.03;;;;;;;;;;4987740;28;20462;-83
2024/01/01 03:54:34;;;;;;;5.73;2.00;;;;;;;;;;5000400;28;20566;-84
2024/01/01 03:57:11;;;;;;;4.90;1.20;;;;;;;;;;4997846;28;20755;-87
2024/01/01 03:59:42;;;;;;;6.37;2.13;;;;;;;;;;5005212;28;20451;-85
2024/01/01 04:02:12;;;;;;;9.33;1.93;;;;;;;;;;5000540;28;20443;-85
2024/01/01 04:04:49;;;;;;;9.13;2.63;;;;;;;;;;5005964;28;20459;-84
2024/01/01 04:07:25;;;;;;;7.67;1.73;;;;;;;;;;4995310;28;20890;-84
2024/01/01 04:10:08;;;;;;;4.50;1.67;;;;;;;;;;5006469;28;20477;-86
2024/01/01 04:12:43;;;;;;;5.00;1.50;;;;;;;;;;4990935;28;20518;-85
2024/01/01 04:15:21;;;;;;;12.70;2.00;;;;;;;;;;4989294;28;20904;-86
2024/01/01 04:18:08;;;;;;;6.40;1.57;;;;;;;;;;4990874;28;20451;-85
2024/01/01 04:20:41;;;;;;;10.33;1.70;;;;;;;;;;5004432;28;20480;-84
2024/01/01 04:23:17;;;;;;;3.13;1.70;;;;;;;;;;5001607;28;20451;-87
2024/01/01 04:25:44;;;;;;;11.53;1.70;;;;;;;;;;4988890;28;20536;-87
2024/01/01 04:28:17;;;;;;;9.00;1.67;;;;;;;;;;5002277;28;20452;-85
2024/01/01 04:31:06;;;;;;;7.67;2.90;;;;;;;;;;4999263;28;20534;-85
2024/01/01 04:33:58;;;;;;;6.83;1.60;;;;;;;;;;4996122;28;20490;-87
2024/01/01 04:36:41;;;;;;;5.00;1.33;;;;;;;;;;4992047;28;20481;-86
2024/01/01 04:39:18;;;;;;;4.33;1.60;;;;;;;;;;4992579;28;20474;-84
2024/01/01 04:42:03;;;;;;;6.60;1.47;;;;;;;;;;5009844;28;20447;-85
2024/01/01 04:44:53;;;;;;;8.93;2.30;;;;;;;;;;5011922;28;20471;-85
2024/01/01 04:47:31;;;;;;;6.60;1.63;;;;;;;;;;4999941;28;21451;-87
2024/01/01 04:50:01;;;;;;;15.80;2.10;;;;;;;;;;5001873;28;20495;-84
2024/01/01 04:53:00;;;;;;;7.67;1.87;;;;;;;;;;5012704;28;20491;-86
2024/01/01 04:55:39;;;;;;;4.50;1.40;;;;;;;;;;5015997;28;20509;-85
2024/01/01 04:58:07;;;;;;;4.47;1.53;;;;;;;;;;4997689;28;20491;-87
2024/01/01 05:00:41;;;;;;;5.13;1.97;;;;;;;;;;4992962;28;20463;-87
2024/01/01 05:03:12;;;;;;;6.37;2.50;;;;;;;;;;5001060;28;20470;-87
2024/01/01 05:05:42;;;;;;;8.33;1.50;;;;;;;;;;5006161;28;20498;-86
2024/01/01 05:08:19;;;;;;;5.87;1.77;;;;;;;;;;4991566;28;20447;-85
2024/01/01 05:10:51;;;;;;;8.60;1.80;;;;;;;;;;5003060;28;20489;-85
2024/01/01 05:13:28;;;;;;;3.20;1.70;;;;;;;;;;4999045;28;20458;-86
2024/01/01 05:16:01;;;;;;;3.90;1.70;;;;;;;;;;4999988;28;20543;-86
2024/01/01 05:18:37;;;;;;;4.97;2.00;;;;;;;;;;5004168;28;20450;-84
2024/01/01 05:21:14;;;;;;;6.47;1.60;;;;;;;;;;5014484;28;20451;-85
2024/01/01 05:23:53;;;;;;;4.37;1.60;;;;;;;;;;5001378;28;20463;-87
2024/01/01 05:26:44;;;;;;;5.73;1.80;;;;;;;;;;5009655;28;20455;-83
2024/01/01 05:29:17;;;;;;;4.87;1.80;;;;;;;;;;4991539;28;20456;-85
2024/01/01 05:31:50;;;;;;;6.80;1.70;;;;;;;;;;5015492;28;20463;-84
2024/01/01 05:34:23;;;;;;;9.80;2.00;;;;;;;;;;5011838;28;20486;-85
2024/01/01 05:37:00;;;;;;;7.33;1.90;;;;;;;;;;5006481;28;20463;-85
2024/01/01 05:39:37;;;;;;;3.57;1.50;;;;;;;;;;5004026;28;20512;-85
2024/01/01 05:42:06;;;;;;;7.07;2.00;;;;;;;;;;4991929;28;20428;-86
2024/01/01 05:44:39;;;;;;;5.47;1.50;;;;;;;;;;4991370;28;20457;-86
2024/01/01 05:47:16;;;;;;;7.30;2.57;;;;;;;;;;4999243;28;20484;-86
2024/01/01 05:50:00;;;;;;;8.27;1.60;;;;;;;;;;4992049;28;20456;-86
2024/01/01 05:52:38;;;;;;;7.03;2.70;;;;;;;;;;4998545;28;20482;-86
2024/01/01 05:55:14;;;;;;;8.60;2.13;;;;;;;;;;5004238;28;20578;-82
2024/01/01 05:57:59;;;;;;;10.73;2.63;;;;;;;;;;4999982;28;20458;-84
2024/01/01 06:00:39;;;;;;;9.10;2.80;;;;;;;;;;5005165;28;20481;-86
2024/01/01 06:03:10;;;;;;;6.97;1.97;;;;;;;;;;4991848;28;21002;-85
2024/01/01 06:05:37;;;;;;;11.33;1.77;;;;;;;;;;4995270;28;20491;-84
2024/01/01 06:08:12;;;;;;;8.40;2.27;;;;;;;;;;4993675;28;20460;-86
2024/01/01 06:10:46;;;;;;;3.93;1.77;;;;;;;;;;4992054;28;20463;-85
2024/01/01 06:13:18;;;;;;;6.87;2.00;;;;;;;;;;4993258;28;20528;-83
2024/01/01 06:15:49;;;;;;;6.83;1.83;;;;;;;;;;4990953;28;20507;-85
2024/01/01 06:18:24;;;;;;;4.23;1.63;;;;;;;;;;4999525;28;20473;-82
2024/01/01 06:20:59;;;;;;;9.70;2.37;;;;;;;;;;5013095;28;20451;-86
2024/01/01 06:23:38;;;;;;;10.57;2.37;;;;;;;;;;5005362;28;20484;-87
2024/01/01 06:26:21;;;;;;;10.60;3.70;;;;;;;;;;5009487;28;20466;-86
2024/01/01 06:28:50;;;;;;;9.00;1.70;;;;;;;;;;5026003;28;20478;-84
2024/01/01 06:31:27;;;;;;;13.13;2.27;;;;;;;;;;5006979;28;20463;-86
2024/01/01 06:34:01;;;;;;;6.33;2.33;;;;;;;;;;5005365;28;20549;-84
2024/01/01 06:36:35;;;;;;;6.00;1.80;;;;;;;;;;4999738;28;20485;-86
2024/01/01 06:39:24;;;;;;;7.07;2.30;;;;;;;;;;4991552;28;20462;-86
2024/01/01 06:42:01;;;;;;;5.07;1.27;;;;;;;;;;5008744;28;21969;-83
2024/01/01 06:44:43;;;;;;;5.97;1.80;;;;;;;;;;5006501;28;20577;-85
2024/01/01 06:47:15;;;;;;;5.10;1.90;;;;;;;;;;4999532;28;20823;-87
2024/01/01 06:49:55;;;;;;;7.57;1.90;;;;;;;;;;4993730;28;20461;-84
2024/01/01 06:52:27;;;;;;;9.40;2.37;;;;;;;;;;4997445;28;20508;-85
2024/01/01 06:55:06;;;;;;;5.03;1.70;;;;;;;;;;5006040;28;20540;-84
2024/01/01 06:57:41;;;;;;;7.10;2.27;;;;;;;;;;5000729;28;20489;-87
2024/01/01 07:00:15;;;;;;;4.87;1.70;;;;;;;;;;5005254;28;20482;-83
2024/01/01 07:02:51;;;;;;;5.67;2.20;;;;;;;;;;5007552;28;20518;-85
2024/01/01 07:05:29;;;;;;;7.50;2.20;;;;;;;;;;4998003;28;20487;-84
2024/01/01 07:08:03;;;;;;;8.10;1.90;;;;;;;;;;5006845;28;20655;-86
2024/01/01 07:10:34;;;;;;;6.70;1.93;;;;;;;;;;5001839;28;21203;-84
2024/01/01 07:13:03;;;;;;;7.80;1.57;;;;;;;;;;5001067;28;20457;-85
2024/01/01 07:15:36;;;;;;;3.30;1.60;;;;;;;;;;4988727;28;20485;-86
2024/01/01 07:18:26;;;;;;;11.77;1.97;;;;;;;;;;4996483;28;20463;-86
2024/01/01 07:21:06;;;;;;;6.90;3.07;;;;;;;;;;4989879;28;20632;-82
2024/01/01 07:23:39;;;;;;;7.77;2.40;;;;;;;;;;4994103;28;20460;-86
2024/01/01 07:26:19;;;;;;;7.33;1.57;;;;;;;;;;4981773;28;20501;-86
2024/01/01 07:28:57;;;;;;;5.27;2.17;;;;;;;;;;5005435;28;20533;-87
2024/01/01 07:31:31;;;;;;;6.60;1.80;;;;;;;;;;5003947;28;20534;-84
2024/01/01 07:34:10;;;;;;;7.67;2.07;;;;;;;;;;5003735;28;21147;-87
2024/01/01 07:39:32;;;;;;;4.23;1.67;;;;;;;;;;5009376;28;20468;-86
2024/01/01 07:42:11;;;;;;;5.40;1.80;;;;;;;;;;5013227;28;20481;-83
2024/01/01 07:44:44;;;;;;;10.60;2.00;;;;;;;;;;5005055;28;20454;-84
2024/01/01 07:47:19;;;;;;;5.10;2.00;;;;;;;;;;4999240;28;20826;-87
2024/01/01 07:50:06;;;;;;;5.53;1.70;;;;;;;;;;4993700;28;20474;-85
2024/01/01 07:52:36;;;;;;;7.43;1.40;;;;;;;;;;4991449;28;20892;-85
2024/01/01 07:55:07;;;;;;;3.77;1.13;;;;;;;;;;4989702;28;20486;-85
2024/01/01 07:57:42;;;;;;;3.43;1.80;;;;;;;;;;5000292;28;20459;-85
2024/01/01 08:00:11;;;;;;;10.30;1.90;;;;;;;;;;5000887;28;20443;-84
2024/01/01 08:02:46;;;;;;;7.83;1.87;;;;;;;;;;5009178;28;20439;-84
2024/01/01 08:05:17;;;;;;;5.13;1.50;;;;;;;;;;5001029;28;20462;-86
2024/01/01 08:07:50;;;;;;;7.40;1.60;;;;;;;;;;4983416;28;20558;-85
2024/01/01 08:10:24;;;;;;;2.90;1.00;;;;;;;;;;4992292;28;20500;-87
2024/01/01 08:12:52;;;;;;;1.47;0.83;;;;;;;;;;4990617;28;20470;-85
2024/01/01 08:15:24;;;;;;;3.50;0.97;;;;;;;;;;4987409;28;20501;-86
2024/01/01 08:17:55;;;;;;;3.03;0.83;;;;;;;;;;4991411;28;20460;-85
2024/01/01 08:20:32;;;;;;;2.17;1.00;;;;;;;;;;4986160;28;20463;-84
2024/01/01 08:22:59;;;;;;;3.17;1.20;;;;;;;;;;4986801;28;20550;-85
2024/01/01 08:25:33;;;;;;;2.07;0.90;;;;;;;;;;4988176;28;20622;-87
2024/01/01 08:28:00;;;;;;;7.73;1.10;;;;;;;;;;4979287;28;20482;-88
2024/01/01 08:30:33;;;;;;;5.43;1.00;;;;;;;;;;4986604;28;20526;-88
2024/01/01 08:33:08;;;;;;;0.70;0.60;;;;;;;;;;4983976;28;20836;-85
2024/01/01 08:35:41;;;;;;;1.00;0.60;;;;;;;;;;4986853;28;20485;-83
2024/01/01 08:38:11;;;;;;;1.53;0.60;;;;;;;;;;4987544;28;20467;-86
2024/01/01 08:40:39;;;;;;;2.20;0.73;;;;;;;;;;4989005;28;20464;-83
2024/01/01 08:43:09;;;;;;;0.90;0.43;;;;;;;;;;4980391;28;20491;-84
2024/01/01 08:45:40;;;;;;;1.53;1.00;;;;;;;;;;4981656;28;20854;-85
2024/01/01 08:48:10;;;;;;;2.00;0.70;;;;;;;;;;4989373;28;20458;-85
2024/01/01 08:50:40;;;;;;;0.83;0.60;;;;;;;;;;4996520;28;20532;-85
2024/01/01 08:53:13;;;;;;;1.13;0.50;;;;;;;;;;4989891;28;20455;-84
2024/01/01 08:55:42;;;;;;;1.37;0.60;;;;;;;;;;4987152;28;20521;-86
2024/01/01 08:58:10;;;;;;;1.10;0.70;;;;;;;;;;4994528;28;20468;-87
2024/01/01 09:00:37;;;;;;;2.57;0.67;;;;;;;;;;4998247;28;20435;-84
2024/01/01 09:03:05;;;;;;;2.60;0.60;;;;;;;;;;4991278;28;20478;-87
2024/01/01 09:05:39;;;;;;;3.00;0.60;;;;;;;;;;4995935;28;21100;-86
2024/01/01 09:08:07;;;;;;;1.13;0.50;;;;;;;;;;5002710;28;20556;-86
2024/01/01 09:10:37;;;;;;;1.33;0.50;;;;;;;;;;5002038;28;20450;-87
2024/01/01 09:13:08;;;;;;;0.70;0.40;;;;;;;;;;4991417;28;20535;-84
2024/01/01 09:15:41;;;;;;;3.53;1.00;;;;;;;;;;4982837;28;20593;-86
2024/01/01 09:18:14;;;;;;;2.80;1.03;;;;;;;;;;4998305;28;20485;-85
2024/01/01 09:20:42;;;;;;;3.53;0.60;;;;;;;;;;4986371;28;20495;-83
2024/01/01 09:23:11;;;;;;;0.87;0.60;;;;;;;;;;5000849;28;20458;-84
2024/01/01 09:25:44;;;;;;;0.93;0.60;;;;;;;;;;4993504;28;20486;-85
2024/01/01 09:28:18;;;;;;;0.63;0.60;;;;;;;;;;4996661;28;20491;-85
2024/01/01 09:30:54;;;;;;;0.80;0.50;;;;;;;;;;5002543;28;20469;-84
2024/01/01 09:33:22;;;;;;;1.67;0.60;;;;;;;;;;4999075;28;20462;-84
2024/01/01 09:36:03;;;;;;;0.60;0.40;;;;;;;;;;4995000;28;20479;-85
2024/01/01 09:38:31;;;;;;;2.23;1.10;;;;;;;;;;5002554;28;20529;-86
2024/01/01 09:41:07;;;;;;;1.37;0.63;;;;;;;;;;5004995;28;20443;-82
2024/01/01 09:43:48;;;;;;;1.37;0.50;;;;;;;;;;4997050;28;20455;-86
2024/01/01 09:46:18;;;;;;;1.27;0.50;;;;;;;;;;4993678;28;21204;-86
2024/01/01 09:48:48;;;;;;;1.20;0.60;;;;;;;;;;5000451;28;20560;-85
2024/01/01 09:51:22;;;;;;;1.40;0.83;;;;;;;;;;5004682;28;20465;-86
2024/01/01 09:53:52;;;;;;;0.70;0.60;;;;;;;;;;5004958;28;20840;-86
2024/01/01 09:56:23;;;;;;;2.60;0.73;;;;;;;;;;5004103;28;21024;-85
2024/01/01 09:59:01;;;;;;;2.73;1.00;;;;;;;;;;4998125;28;20850;-87
2024/01/01 10:01:33;;;;;;;1.37;0.90;;;;;;;;;;5006187;28;20459;-86
2024/01/01 10:04:07;;;;;;;1.77;0.97;;;;;;;;;;5015740;28;20446;-85
2024/01/01 10:06:41;;;;;;;4.10;1.13;;;;;;;;;;5023331;28;20461;-86
2024/01/01 10:09:12;;;;;;;2.70;1.20;;;;;;;;;;5003558;28;20549;-84
2024/01/01 10:11:42;;;;;;;1.87;0.87;;;;;;;;;;5025096;28;20533;-86
2024/01/01 10:14:12;;;;;;;3.10;0.67;;;;;;;;;;5019719;28;20938;-83
2024/01/01 10:16:40;;;;;;;4.10;1.40;;;;;;;;;;5020271;28;20541;-84
2024/01/01 10:19:13;;;;;;;2.87;0.70;;;;;;;;;;5021489;28;20463;-86
2024/01/01 10:21:51;;;;;;;2.60;1.00;;;;;;;;;;5019880;28;20526;-87
2024/01/01 10:24:21;;;;;;;4.30;1.50;;;;;;;;;;5025016;28;20450;-86
2024/01/01 10:26:56;;;;;;;1.80;0.90;;;;;;;;;;5009214;28;20493;-86
2024/01/01 10:29:29;;;;;;;4.03;0.80;;;;;;;;;;5024868;28;20489;-86
2024/01/01 10:32:10;;;;;;;3.27;1.00;;;;;;;;;;5010157;28;20454;-85
2024/01/01 10:34:40;;;;;;;6.83;1.37;;;;;;;;;;5015658;28;20455;-86
2024/01/01 10:37:11;;;;;;;1.80;0.83;;;;;;;;;;4996469;28;20491;-85
2024/01/01 10:39:46;;;;;;;2.23;0.80;;;;;;;;;;4997900;28;20447;-85
2024/01/01 10:42:20;;;;;;;4.20;1.23;;;;;;;;;;5012013;28;20466;-87
2024/01/01 10:44:57;;;;;;;3.27;1.10;;;;;;;;;;5006935;28;20570;-87
2024/01/01 10:47:33;;;;;;;6.10;1.47;;;;;;;;;;5002044;28;20462;-86
2024/01/01 10:50:21;;;;;;;1.27;0.80;;;;;;;;;;5010615;28;20523;-87
2024/01/01 10:53:08;;;;;;;3.90;1.40;;;;;;;;;;5014636;28;20464;-85
2024/01/01 10:55:39;;;;;;;3.90;1.30;;;;;;;;;;5008886;28;20502;-86
2024/01/01 10:58:34;;;;;;;4.90;1.20;;;;;;;;;;4997474;28;20460;-88
2024/01/01 11:01:11;;;;;;;2.10;1.17;;;;;;;;;;4996770;28;20457;-86
2024/01/01 11:03:51;;;;;;;4.10;1.30;;;;;;;;;;5004495;28;20459;-88
2024/01/01 11:06:33;;;;;;;2.37;1.20;;;;;;;;;;5003639;28;20502;-87
2024/01/01 11:09:19;;;;;;;3.60;1.00;;;;;;;;;;5003753;28;20537;-86
2024/01/01 11:11:53;;;;;;;2.30;1.13;;;;;;;;;;5012052;28;20625;-87
2024/01/01 11:14:24;;;;;;;3.60;1.00;;;;;;;;;;4983810;28;20443;-86
2024/01/01 11:17:03;;;;;;;2.47;1.60;;;;;;;;;;5009104;28;20483;-86
2024/01/01 11:19:41;;;;;;;3.70;1.23;;;;;;;;;;5002771;28;20475;-84
2024/01/01 11:22:33;;;;;;;8.80;1.27;;;;;;;;;;5007516;28;20447;-87
2024/01/01 11:25:03;;;;;;;2.73;1.90;;;;;;;;;;5001752;28;20457;-87
2024/01/01 11:27:34;;;;;;;4.50;1.27;;;;;;;;;;4994932;28;20448;-86
2024/01/01 11:30:09;;;;;;;4.97;1.37;;;;;;;;;;5005095;28;20541;-86
2024/01/01 11:32:47;;;;;;;3.90;1.43;;;;;;;;;;4993114;28;20524;-88
2024/01/01 11:35:27;;;;;;;6.27;1.40;;;;;;;;;;5005979;28;20483;-88
2024/01/01 11:38:08;;;;;;;2.90;1.27;;;;;;;;;;5006283;28;20509;-87
2024/01/01 11:40:38;;;;;;;1.13;0.50;;;;;;;;;;5005853;28;20523;-87
2024/01/01 11:43:06;;;;;;;3.27;1.30;;;;;;;;;;5009442;28;20474;-86
2024/01/01 11:45:55;;;;;;;;;;;;;;;;;;;;;
2024/01/01 11:48:30;;;;;;;3.80;1.47;;;;;;;;;;5002954;28;20779;-85
2024/01/01 11:51:09;;;;;;;2.83;1.30;;;;;;;;;;5002062;28;21840;-86
2024/01/01 11:53:46;;;;;;;3.47;0.87;;;;;;;;;;5002516;28;20466;-85
2024/01/01 11:56:16;;;;;;;3.60;1.07;;;;;;;;;;4995233;28;20496;-85
2024/01/01 11:58:52;;;;;;;3.43;1.07;;;;;;;;;;5006750;28;20485;-85
2024/01/01 12:01:25;;;;;;;3.23;1.10;;;;;;;;;;4994627;28;20485;-86
2024/01/01 12:03:57;;;;;;;6.03;1.87;;;;;;;;;;5013521;28;20552;-87
2024/01/01 12:06:40;;;;;;;9.70;1.57;;;;;;;;;;5005162;28;20473;-85
2024/01/01 12:09:09;;;;;;;4.10;1.07;;;;;;;;;;5013760;28;20467;-86
2024/01/01 12:11:37;;;;;;;4.07;1.40;;;;;;;;;;5041888;22;20503;-87
2024/01/01 12:14:25;;;;;;;4.90;1.17;;;;;;;;;;5035311;28;20467;-85
2024/01/01 12:16:54;;;;;;;3.10;1.43;;;;;;;;;;5015823;28;20476;-84
2024/01/01 12:19:41;;;;;;;5.33;1.40;;;;;;;;;;5027087;28;20452;-84
2024/01/01 12:22:20;;;;;;;4.93;1.33;;;;;;;;;;5014474;28;20450;-85
2024/01/01 12:24:57;;;;;;;7.30;1.60;;;;;;;;;;5006441;28;20486;-84
2024/01/01 12:27:27;;;;;;;2.60;1.20;;;;;;;;;;5009659;28;21124;-85
2024/01/01 12:29:59;;;;;;;5.93;1.73;;;;;;;;;;5025456;28;20457;-85
2024/01/01 12:32:27;;;;;;;1.80;1.50;;;;;;;;;;5009721;28;20466;-87
2024/01/01 12:34:58;;;;;;;6.60;2.40;;;;;;;;;;5029369;28;20890;-87
2024/01/01 12:37:50;;;;;;;5.87;3.17;;;;;;;;;;5029122;28;20476;-85
2024/01/01 12:40:20;;;;;;;4.30;2.53;;;;;;;;;;5010571;28;20577;-85
2024/01/01 12:43:08;;;;;;;3.77;1.47;;;;;;;;;;5015240;28;20475;-84
2024/01/01 12:45:41;;;;;;;7.70;1.60;;;;;;;;;;5008313;28;20472;-85
2024/01/01 12:48:12;;;;;;;3.03;1.57;;;;;;;;;;5010709;28;20469;-85
2024/01/01 12:50:57;;;;;;;7.70;1.77;;;;;;;;;;5018826;28;20460;-84
2024/01/01 12:53:32;;;;;;;4.83;2.03;;;;;;;;;;4998306;28;20481;-83
2024/01/01 12:56:00;;;;;;;6.93;1.97;;;;;;;;;;5269295;22;20459;-86
2024/01/01 12:58:29;;;;;;;6.63;1.90;;;;;;;;;;5061083;28;20612;-86
2024/01/01 13:01:02;;;;;;;5.10;1.90;;;;;;;;;;5064131;28;20528;-86
2024/01/01 13:06:25;;;;;;;4.77;1.80;;;;;;;;;;5048749;28;20493;-83
2024/01/01 13:08:53;;;;;;;6.60;2.40;;;;;;;;;;5025050;28;20456;-85
2024/01/01 13:11:35;;;;;;;3.13;1.33;;;;;;;;;;5023861;28;20575;-86
2024/01/01 13:14:07;;;;;;;3.90;1.57;;;;;;;;;;5016677;28;20450;-85
2024/01/01 13:16:39;;;;;;;7.70;1.80;;;;;;;;;;5017711;28;20514;-87
2024/01/01 13:19:12;;;;;;;10.70;2.33;;;;;;;;;;5013664;28;20461;-84
2024/01/01 13:21:42;;;;;;;6.53;2.00;;;;;;;;;;5012235;28;20457;-84
2024/01/01 13:24:10;;;;;;;6.70;2.93;;;;;;;;;;5018953;28;20573;-86
2024/01/01 13:26:42;;;;;;;7.40;2.43;;;;;;;;;;5022690;28;20505;-86
2024/01/01 13:29:27;;;;;;;5.60;1.67;;;;;;;;;;5022467;28;20464;-86
2024/01/01 13:32:01;;;;;;;11.50;2.43;;;;;;;;;;4998840;28;20465;-88
2024/01/01 13:34:40;;;;;;;8.87;2.13;;;;;;;;;;5024862;28;20450;-85
2024/01/01 13:37:14;;;;;;;6.60;2.80;;;;;;;;;;5012357;28;21446;-87
2024/01/01 13:39:42;;;;;;;7.87;3.00;;;;;;;;;;5001992;28;21049;-84
2024/01/01 13:42:15;;;;;;;10.70;2.13;;;;;;;;;;5021418;28;20433;-87
2024/01/01 13:45:08;;;;;;;6.90;2.00;;;;;;;;;;5014531;28;20492;-86
2024/01/01 13:47:38;;;;;;;8.67;2.70;;;;;;;;;;5017623;28;20450;-87
2024/01/01 13:50:17;;;;;;;12.43;2.60;;;;;;;;;;5017727;28;20560;-85
2024/01/01 13:52:48;;;;;;;12.57;2.13;;;;;;;;;;5019207;28;20953;-87
2024/01/01 13:55:36;;;;;;;13.50;2.50;;;;;;;;;;5000993;28;20563;-87
2024/01/01 13:58:11;;;;;;;7.60;2.80;;;;;;;;;;4991800;28;20451;-86
2024/01/01 14:00:47;;;;;;;8.10;2.57;;;;;;;;;;4999071;28;21195;-86
2024/01/01 14:03:16;;;;;;;7.30;1.83;;;;;;;;;;5000371;28;20547;-86
2024/01/01 14:05:54;;;;;;;7.90;2.30;;;;;;;;;;5015873;28;20672;-85
2024/01/01 14:08:27;;;;;;;4.27;1.83;;;;;;;;;;5012454;28;20446;-85
2024/01/01 14:11:30;;;;;;;7.40;2.40;;;;;;;;;;5000743;28;20459;-86
2024/01/01 14:14:07;;;;;;;7.33;2.17;;;;;;;;;;5011430;28;20788;-85
2024/01/01 14:16:42;;;;;;;6.70;2.20;;;;;;;;;;5011826;28;20481;-84
2024/01/01 14:19:09;;;;;;;6.53;2.10;;;;;;;;;;5013157;28;20532;-85
2024/01/01 14:22:05;;;;;;;9.07;2.90;;;;;;;;;;5000112;28;20462;-86
2024/01/01 14:24:46;;;;;;;14.57;2.20;;;;;;;;;;5007737;28;20444;-86
2024/01/01 14:27:46;;;;;;;7.70;2.33;;;;;;;;;;5004335;28;20469;-85
2024/01/01 14:30:15;;;;;;;5.70;1.80;;;;;;;;;;5018456;28;21253;-88
2024/01/01 14:32:50;;;;;;;7.30;2.30;;;;;;;;;;5014217;28;20472;-87
2024/01/01 14:35:21;;;;;;;4.57;2.03;;;;;;;;;;5017168;28;20477;-86
2024/01/01 14:37:50;;;;;;;6.77;1.63;;;;;;;;;;5013202;28;20587;-82
2024/01/01 14:40:26;;;;;;;12.07;2.83;;;;;;;;;;5024787;28;20446;-89
2024/01/01 14:46:04;;;;;;;6.47;2.30;;;;;;;;;;5030634;28;20459;-84
2024/01/01 14:48:40;;;;;;;8.10;1.90;;;;;;;;;;5004850;28;20511;-86
2024/01/01 14:51:15;;;;;;;6.30;2.17;;;;;;;;;;5011876;28;20446;-84
2024/01/01 14:53:52;;;;;;;14.07;3.70;;;;;;;;;;5013620;28;20506;-85
2024/01/01 14:56:22;;;;;;;7.93;2.43;;;;;;;;;;5004938;28;20503;-89
2024/01/01 14:58:59;;;;;;;9.57;2.40;;;;;;;;;;5023967;28;20438;-86
2024/01/01 15:01:37;;;;;;;8.10;1.90;;;;;;;;;;5022582;28;22308;-84
2024/01/01 15:04:11;;;;;;;8.67;3.70;;;;;;;;;;5020840;28;20526;-82
2024/01/01 15:06:57;;;;;;;5.23;1.93;;;;;;;;;;5018048;28;20472;-88
2024/01/01 15:09:29;;;;;;;11.43;3.10;;;;;;;;;;5023529;28;20458;-84
2024/01/01 15:12:13;;;;;;;13.83;2.77;;;;;;;;;;5017820;28;20489;-86
2024/01/01 15:15:00;;;;;;;17.43;3.50;;;;;;;;;;5016045;28;20480;-85
2024/01/01 15:17:46;;;;;;;6.70;2.13;;;;;;;;;;5037636;28;20518;-86
2024/01/01 15:20:18;;;;;;;5.50;2.30;;;;;;;;;;5017405;28;20905;-85
2024/01/01 15:23:01;;;;;;;5.23;2.10;;;;;;;;;;5021920;28;20476;-83
2024/01/01 15:25:39;;;;;;;10.37;2.30;;;;;;;;;;5002825;28;20488;-84
2024/01/01 15:28:17;;;;;;;8.60;3.17;;;;;;;;;;5008739;28;20458;-87
2024/01/01 15:34:07;;;;;;;10.53;2.37;;;;;;;;;;5017265;28;20495;-85
2024/01/01 15:36:43;;;;;;;10.27;2.90;;;;;;;;;;5019678;28;20472;-84
2024/01/01 15:39:17;;;;;;;9.57;2.80;;;;;;;;;;5014771;28;20493;-86
2024/01/01 15:41:44;;;;;;;5.97;1.60;;;;;;;;;;5025650;28;20485;-86
2024/01/01 15:44:20;;;;;;;7.33;2.50;;;;;;;;;;5026256;28;21068;-86
2024/01/01 15:46:50;;;;;;;9.47;2.67;;;;;;;;;;5017416;28;20469;-85